LiveATC.Net - Listen to live air traffic control over the Internet!


ICAO: VCBI  IATA: CMB   Airport: Bandaranaike International Airport
City: Colombo
Country: Sri Lanka   Continent: Asia
VCBI METAR Weather: VCBI 170410Z 04012KT 8000 SKC 27/19 Q1013 NOSIG
VCBI Flight Activity (FlightAware)
VCBI Director
Feed Status: DOWN
Last heard on: 2018-01-07 06:23:02 (9 days 22 hours 28 minutes ago)
VCBI Director Audio Archives
FacilityFrequency
Colombo Director132.400

VCBI Tower
Feed Status: DOWN
Last heard on: 2018-01-17 02:31:04 (0 days 2 hours 20 minutes ago)
VCBI Tower Audio Archives
FacilityFrequency
Colombo Tower118.700


NOTICE

Unauthorized use prohibited. See LiveATC.net Terms of Service


Find LiveATC Audio Streams


Airport/ARTCC Code

Frequency Search
(e.g., 124.400, 128.75)
Site-wide search
 


Browse LiveATC Feeds
LiveATC Coverage Map
Top 50 LiveATC Feeds
Bad Weather Areas

LiveATC FAQ
Offer a LiveATC Feed
Contact LiveATC.net
Press Inquiries

LiveATC on iPhone
LiveATC on Android

Windows Phone
Windows 8/10

LiveATC Mobile
(Mobile browser)

ATC Audio Archives
Interesting Recordings

LiveATC Forums


Home Page
About LiveATC.net
Make a Donation
Terms of Use
Privacy Policy

Canadian Air Freqs

AIRMETs/SIGMETs

FAA Airport Status
Nat'l Airspace Status
Arrival Demand Charts


Server Software By:
Icecast.org
Liquidsoap